PST,Max TemperatureF,Mean TemperatureF,Min TemperatureF,Max Dew PointF,MeanDew PointF,Min DewpointF,Max Humidity, Mean Humidity, Min Humidity, Max Sea Level PressureIn, Mean Sea Level PressureIn, Min Sea Level PressureIn, Max VisibilityMiles, Mean VisibilityMiles, Min VisibilityMiles, Max Wind SpeedMPH, Mean Wind SpeedMPH, Max Gust SpeedMPH,PrecipitationIn, CloudCover, Events, WindDirDegrees
2013-2-1,51,46,42,45,43,40,100,91,74,30.40,30.36,30.33,10,7,1,15,4,21,0.02,6,,57
2013-2-2,54,48,41,45,41,39,96,86,69,30.33,30.28,30.24,10,10,6,15,9,,0.00,2,,70
2013-2-3,48,46,44,45,44,42,100,92,86,30.30,30.27,30.22,10,9,5,7,4,,0.00,8,,103
2013-2-4,50,47,44,45,43,42,93,86,74,30.23,30.06,29.91,10,10,9,15,5,24,0.00,7,,138
2013-2-5,50,48,45,46,44,39,100,86,76,29.97,29.87,29.83,10,9,4,21,15,29,0.24,7,Rain,179
2013-2-6,46,44,42,43,42,39,93,89,83,30.03,29.94,29.76,10,9,4,23,11,29,0.43,8,Rain,135
2013-2-7,46,39,32,40,37,32,100,87,76,30.21,30.04,29.81,10,7,0,26,11,33,0.06,6,Fog-Rain,112
2013-2-8,45,38,30,39,34,28,100,95,68,30.32,30.28,30.20,10,3,0,6,2,,0.01,5,Fog,85
2013-2-9,46,40,35,45,41,34,100,95,81,30.34,30.29,30.26,10,7,2,7,2,,0.00,8,,7
2013-2-10,46,41,36,43,39,36,100,90,76,30.39,30.36,30.35,10,10,8,7,2,,0.00,7,,20
2013-2-11,48,45,42,47,43,38,100,93,82,30.38,30.35,30.33,10,6,0,9,3,,0.05,8,Fog-Rain,246
2013-2-12,48,46,44,48,46,44,100,97,93,30.44,30.39,30.36,10,4,1,17,6,,0.27,8,Rain,224
2013-2-13,48,44,41,45,42,39,100,85,74,30.52,30.45,30.38,10,8,2,14,9,18,0.00,8,,259
2013-2-14,48,44,41,48,45,41,100,97,93,30.55,30.53,30.50,10,4,1,8,3,,0.11,8,Rain,61
2013-2-15,55,48,42,47,44,41,100,89,69,30.53,30.38,30.20,10,10,5,15,6,20,0.00,6,,44
2013-2-16,48,46,43,46,42,35,100,85,68,30.27,30.23,30.20,10,8,2,21,8,28,0.07,7,Rain,257
2013-2-17,46,40,35,40,37,35,100,84,71,30.27,30.22,30.11,10,10,9,12,6,,0.04,6,Rain,232
2013-2-18,45,40,36,40,38,35,100,89,76,30.10,29.90,29.72,10,9,6,15,7,,0.05,8,Rain,89
2013-2-19,48,42,34,40,37,33,96,86,66,30.01,29.83,29.71,10,10,10,10,5,,0.00,5,,15
2013-2-20,45,39,33,42,37,32,100,94,81,30.06,30.02,29.96,10,5,0,17,5,24,0.17,8,Fog-Rain,72
2013-2-21,46,42,39,45,41,37,100,89,76,30.11,30.07,30.03,10,8,2,21,8,32,0.38,8,Rain,223
2013-2-22,48,42,37,46,41,33,100,87,71,30.09,29.89,29.78,10,6,2,36,16,41,1.56,8,Rain,215
2013-2-23,46,42,39,38,36,34,93,79,63,30.41,30.22,29.98,10,9,4,23,13,34,0.20,7,Rain,273
2013-2-24,46,42,39,43,40,36,97,87,71,30.41,30.22,29.93,10,7,2,25,11,32,0.22,8,Rain,142
2013-2-25,48,44,37,43,38,34,93,81,58,30.34,30.11,29.90,10,9,2,28,16,47,0.27,6,Rain,253
2013-2-26,46,41,36,42,38,35,97,86,71,30.35,30.26,30.19,10,8,3,17,7,21,0.15,7,Rain,118
2013-2-27,48,40,33,45,41,34,100,94,81,30.30,30.25,30.21,10,6,1,10,5,,0.10,6,Rain,57
2013-2-28,50,47,44,48,46,42,100,96,92,30.34,30.24,30.15,10,4,2,23,11,29,1.13,8,Rain,122